sensor_id;sensor_type;location;lat;lon;timestamp;temperature;humidity
20463;DHT22;10390;53.566;9.980;2023-04-01T00:00:06;24.20;1.00
20463;DHT22;10390;53.566;9.980;2023-04-01T00:02:31;24.20;1.00
20463;DHT22;10390;53.566;9.980;2023-04-01T00:04:57;24.20;1.00
20463;DHT22;10390;53.566;9.980;2023-04-01T00:07:23;24.20;1.00
20463;DHT22;10390;53.566;9.980;2023-04-01T00:09:48;24.10;1.00
20463;DHT22;10390;53.566;9.980;2023-04-01T00:12:14;24.00;1.00
20463;DHT22;10390;53.566;9.980;2023-04-01T00:14:40;24.00;1.00
20463;DHT22;10390;53.566;9.980;2023-04-01T00:17:05;23.90;1.00
20463;DHT22;10390;53.566;9.980;2023-04-01T00:19:31;23.80;1.00
20463;DHT22;10390;53.566;9.980;2023-04-01T00:21:58;23.80;1.00
20463;DHT22;10390;53.566;9.980;2023-04-01T00:24:24;23.80;1.00
20463;DHT22;10390;53.566;9.980;2023-04-01T00:26:50;23.80;1.00
20463;DHT22;10390;53.566;9.980;2023-04-01T00:29:15;23.80;1.00
20463;DHT22;10390;53.566;9.980;2023-04-01T00:31:41;23.80;1.00
20463;DHT22;10390;53.566;9.980;2023-04-01T00:34:07;23.80;1.00
20463;DHT22;10390;53.566;9.980;2023-04-01T00:36:32;23.70;1.00
20463;DHT22;10390;53.566;9.980;2023-04-01T00:38:58;23.80;1.00
20463;DHT22;10390;53.566;9.980;2023-04-01T00:41:26;23.80;1.00
20463;DHT22;10390;53.566;9.980;2023-04-01T00:44:20;23.70;1.00
20463;DHT22;10390;53.566;9.980;2023-04-01T00:46:47;23.80;1.00
20463;DHT22;10390;53.566;9.980;2023-04-01T00:49:13;23.80;1.00
20463;DHT22;10390;53.566;9.980;2023-04-01T00:51:41;23.80;1.00
20463;DHT22;10390;53.566;9.980;2023-04-01T00:54:08;23.80;1.00
20463;DHT22;10390;53.566;9.980;2023-04-01T00:56:41;23.80;1.00
20463;DHT22;10390;53.566;9.980;2023-04-01T00:59:13;23.80;1.00
20463;DHT22;10390;53.566;9.980;2023-04-01T01:01:40;23.80;1.00
20463;DHT22;10390;53.566;9.980;2023-04-01T01:04:06;23.80;1.00
20463;DHT22;10390;53.566;9.980;2023-04-01T01:12:34;23.80;1.00
20463;DHT22;10390;53.566;9.980;2023-04-01T01:31:24;23.90;1.00
20463;DHT22;10390;53.566;9.980;2023-04-01T01:34:22;23.90;1.00
20463;DHT22;10390;53.566;9.980;2023-04-01T01:36:55;23.90;1.00
20463;DHT22;10390;53.566;9.980;2023-04-01T01:39:26;24.00;1.00
20463;DHT22;10390;53.566;9.980;2023-04-01T01:41:57;24.00;1.00
20463;DHT22;10390;53.566;9.980;2023-04-01T01:44:28;24.00;1.00
20463;DHT22;10390;53.566;9.980;2023-04-01T01:46:56;24.00;1.00
20463;DHT22;10390;53.566;9.980;2023-04-01T01:49:22;24.00;1.00
20463;DHT22;10390;53.566;9.980;2023-04-01T01:51:49;24.10;1.00
20463;DHT22;10390;53.566;9.980;2023-04-01T01:54:16;24.10;1.00
20463;DHT22;10390;53.566;9.980;2023-04-01T01:56:45;24.10;1.00
20463;DHT22;10390;53.566;9.980;2023-04-01T01:59:13;24.10;1.00
20463;DHT22;10390;53.566;9.980;2023-04-01T02:01:43;24.10;1.00
20463;DHT22;10390;53.566;9.980;2023-04-01T02:04:11;24.10;1.00
20463;DHT22;10390;53.566;9.980;2023-04-01T02:06:42;24.10;1.00
20463;DHT22;10390;53.566;9.980;2023-04-01T02:09:10;24.10;1.00
20463;DHT22;10390;53.566;9.980;2023-04-01T02:11:52;24.00;1.00
20463;DHT22;10390;53.566;9.980;2023-04-01T02:14:21;24.00;1.00
20463;DHT22;10390;53.566;9.980;2023-04-01T02:16:53;23.90;1.00
20463;DHT22;10390;53.566;9.980;2023-04-01T02:19:22;23.90;1.00
20463;DHT22;10390;53.566;9.980;2023-04-01T02:21:55;23.80;1.00
20463;DHT22;10390;53.566;9.980;2023-04-01T02:24:22;23.80;1.00
20463;DHT22;10390;53.566;9.980;2023-04-01T02:26:51;23.70;1.00
20463;DHT22;10390;53.566;9.980;2023-04-01T02:29:20;23.70;1.00
20463;DHT22;10390;53.566;9.980;2023-04-01T02:31:47;23.70;1.00
20463;DHT22;10390;53.566;9.980;2023-04-01T02:34:13;23.70;1.00
20463;DHT22;10390;53.566;9.980;2023-04-01T02:36:39;23.70;1.00
20463;DHT22;10390;53.566;9.980;2023-04-01T02:39:05;23.70;1.00
20463;DHT22;10390;53.566;9.980;2023-04-01T02:41:31;23.70;1.00
20463;DHT22;10390;53.566;9.980;2023-04-01T02:44:03;23.70;1.00
20463;DHT22;10390;53.566;9.980;2023-04-01T02:46:29;23.70;1.00
20463;DHT22;10390;53.566;9.980;2023-04-01T02:48:54;23.70;1.00
20463;DHT22;10390;53.566;9.980;2023-04-01T02:51:20;23.70;1.00
20463;DHT22;10390;53.566;9.980;2023-04-01T02:53:45;23.70;1.00
20463;DHT22;10390;53.566;9.980;2023-04-01T02:56:11;23.70;1.00
20463;DHT22;10390;53.566;9.980;2023-04-01T02:58:37;23.70;1.00
20463;DHT22;10390;53.566;9.980;2023-04-01T03:01:02;23.70;1.00
20463;DHT22;10390;53.566;9.980;2023-04-01T03:03:28;23.70;1.00
20463;DHT22;10390;53.566;9.980;2023-04-01T03:05:53;23.70;1.00
20463;DHT22;10390;53.566;9.980;2023-04-01T03:08:21;23.70;1.00
20463;DHT22;10390;53.566;9.980;2023-04-01T03:10:47;23.80;1.00
20463;DHT22;10390;53.566;9.980;2023-04-01T03:13:12;23.70;1.00
20463;DHT22;10390;53.566;9.980;2023-04-01T03:15:38;23.80;1.00
20463;DHT22;10390;53.566;9.980;2023-04-01T03:18:04;23.80;1.00
20463;DHT22;10390;53.566;9.980;2023-04-01T03:20:29;23.80;1.00
20463;DHT22;10390;53.566;9.980;2023-04-01T03:22:55;23.80;1.00
20463;DHT22;10390;53.566;9.980;2023-04-01T03:25:21;23.80;1.00
20463;DHT22;10390;53.566;9.980;2023-04-01T03:27:46;23.80;1.00
20463;DHT22;10390;53.566;9.980;2023-04-01T03:30:12;23.80;1.00
20463;DHT22;10390;53.566;9.980;2023-04-01T03:32:38;23.80;1.00
20463;DHT22;10390;53.566;9.980;2023-04-01T03:35:04;23.80;1.00
20463;DHT22;10390;53.566;9.980;2023-04-01T03:37:30;23.80;1.00
20463;DHT22;10390;53.566;9.980;2023-04-01T03:39:55;23.90;1.00
20463;DHT22;10390;53.566;9.980;2023-04-01T03:42:21;23.90;1.00
20463;DHT22;10390;53.566;9.980;2023-04-01T03:44:47;24.00;1.00
20463;DHT22;10390;53.566;9.980;2023-04-01T03:47:12;24.00;1.00
20463;DHT22;10390;53.566;9.980;2023-04-01T03:49:38;24.00;1.00
20463;DHT22;10390;53.566;9.980;2023-04-01T03:52:03;24.00;1.00
20463;DHT22;10390;53.566;9.980;2023-04-01T03:54:29;24.00;1.00
20463;DHT22;10390;53.566;9.980;2023-04-01T03:56:55;24.00;1.00
20463;DHT22;10390;53.566;9.980;2023-04-01T03:59:23;24.00;1.00
20463;DHT22;10390;53.566;9.980;2023-04-01T04:01:48;24.00;1.00
20463;DHT22;10390;53.566;9.980;2023-04-01T04:04:14;24.00;1.00
20463;DHT22;10390;53.566;9.980;2023-04-01T04:06:40;24.00;1.00
20463;DHT22;10390;53.566;9.980;2023-04-01T04:09:05;23.90;1.00
20463;DHT22;10390;53.566;9.980;2023-04-01T04:11:31;23.90;1.00
20463;DHT22;10390;53.566;9.980;2023-04-01T04:13:58;23.80;1.00
20463;DHT22;10390;53.566;9.980;2023-04-01T04:16:24;23.80;1.00
20463;DHT22;10390;53.566;9.980;2023-04-01T04:18:49;23.80;1.00
20463;DHT22;10390;53.566;9.980;2023-04-01T04:21:16;23.70;1.00
20463;DHT22;10390;53.566;9.980;2023-04-01T04:23:44;23.70;1.00
20463;DHT22;10390;53.566;9.980;2023-04-01T04:26:14;23.60;1.00
20463;DHT22;10390;53.566;9.980;2023-04-01T04:28:40;23.60;1.00
20463;DHT22;10390;53.566;9.980;2023-04-01T04:31:06;23.60;1.00
20463;DHT22;10390;53.566;9.980;2023-04-01T04:33:32;23.60;1.00
20463;DHT22;10390;53.566;9.980;2023-04-01T04:35:58;23.60;1.00
20463;DHT22;10390;53.566;9.980;2023-04-01T04:38:25;23.60;1.00
20463;DHT22;10390;53.566;9.980;2023-04-01T04:40:51;23.60;1.00
20463;DHT22;10390;53.566;9.980;2023-04-01T04:43:17;23.60;1.00
20463;DHT22;10390;53.566;9.980;2023-04-01T04:45:43;23.60;1.00
20463;DHT22;10390;53.566;9.980;2023-04-01T04:48:10;23.60;1.00
20463;DHT22;10390;53.566;9.980;2023-04-01T04:50:40;23.60;1.00
20463;DHT22;10390;53.566;9.980;2023-04-01T04:53:06;23.70;1.00
20463;DHT22;10390;53.566;9.980;2023-04-01T04:55:31;23.60;1.00
20463;DHT22;10390;53.566;9.980;2023-04-01T04:57:57;23.70;1.00
20463;DHT22;10390;53.566;9.980;2023-04-01T05:00:22;23.70;1.00
20463;DHT22;10390;53.566;9.980;2023-04-01T05:02:48;23.70;1.00
20463;DHT22;10390;53.566;9.980;2023-04-01T05:05:14;23.70;1.00
20463;DHT22;10390;53.566;9.980;2023-04-01T05:07:39;23.70;1.00
20463;DHT22;10390;53.566;9.980;2023-04-01T05:10:05;23.70;1.00
20463;DHT22;10390;53.566;9.980;2023-04-01T05:12:31;23.70;1.00
20463;DHT22;10390;53.566;9.980;2023-04-01T05:15:02;23.70;1.00
20463;DHT22;10390;53.566;9.980;2023-04-01T05:17:28;23.70;1.00
20463;DHT22;10390;53.566;9.980;2023-04-01T05:19:53;23.70;1.00
20463;DHT22;10390;53.566;9.980;2023-04-01T05:22:19;23.70;1.00
20463;DHT22;10390;53.566;9.980;2023-04-01T05:24:45;23.80;1.00
20463;DHT22;10390;53.566;9.980;2023-04-01T05:27:11;23.80;1.00
20463;DHT22;10390;53.566;9.980;2023-04-01T05:29:36;23.80;1.00
20463;DHT22;10390;53.566;9.980;2023-04-01T05:32:02;23.80;1.00
20463;DHT22;10390;53.566;9.980;2023-04-01T05:34:27;23.80;1.00
20463;DHT22;10390;53.566;9.980;2023-04-01T05:36:53;23.90;1.00
20463;DHT22;10390;53.566;9.980;2023-04-01T05:39:18;23.90;1.00
20463;DHT22;10390;53.566;9.980;2023-04-01T05:41:44;23.90;1.00
20463;DHT22;10390;53.566;9.980;2023-04-01T05:44:11;24.00;1.00
20463;DHT22;10390;53.566;9.980;2023-04-01T05:46:37;24.00;1.00
20463;DHT22;10390;53.566;9.980;2023-04-01T05:49:03;24.00;1.00
20463;DHT22;10390;53.566;9.980;2023-04-01T05:51:28;24.00;1.00
20463;DHT22;10390;53.566;9.980;2023-04-01T05:53:54;24.00;1.00
20463;DHT22;10390;53.566;9.980;2023-04-01T05:56:20;24.00;1.00
20463;DHT22;10390;53.566;9.980;2023-04-01T05:58:51;24.00;1.00
20463;DHT22;10390;53.566;9.980;2023-04-01T06:01:17;24.00;1.00
20463;DHT22;10390;53.566;9.980;2023-04-01T06:03:44;23.90;1.00
20463;DHT22;10390;53.566;9.980;2023-04-01T06:06:26;23.90;1.00
20463;DHT22;10390;53.566;9.980;2023-04-01T06:08:53;23.80;1.00
20463;DHT22;10390;53.566;9.980;2023-04-01T06:11:46;23.80;1.00
20463;DHT22;10390;53.566;9.980;2023-04-01T06:30:40;23.70;1.00
20463;DHT22;10390;53.566;9.980;2023-04-01T06:41:59;23.80;1.00
20463;DHT22;10390;53.566;9.980;2023-04-01T06:44:41;23.80;1.00
20463;DHT22;10390;53.566;9.980;2023-04-01T06:50:16;23.90;1.00
20463;DHT22;10390;53.566;9.980;2023-04-01T06:55:57;23.90;1.00
20463;DHT22;10390;53.566;9.980;2023-04-01T06:58:26;23.90;1.00
20463;DHT22;10390;53.566;9.980;2023-04-01T07:01:34;24.00;1.00
20463;DHT22;10390;53.566;9.980;2023-04-01T07:04:18;23.90;1.00
20463;DHT22;10390;53.566;9.980;2023-04-01T07:07:10;24.00;1.00
20463;DHT22;10390;53.566;9.980;2023-04-01T07:09:43;24.00;1.00
20463;DHT22;10390;53.566;9.980;2023-04-01T07:12:18;24.00;1.00
20463;DHT22;10390;53.566;9.980;2023-04-01T07:14:48;24.00;1.00
20463;DHT22;10390;53.566;9.980;2023-04-01T07:17:20;24.00;1.00
20463;DHT22;10390;53.566;9.980;2023-04-01T07:19:59;24.00;1.00
20463;DHT22;10390;53.566;9.980;2023-04-01T07:25:46;24.00;1.00
20463;DHT22;10390;53.566;9.980;2023-04-01T07:28:15;24.00;1.00
20463;DHT22;10390;53.566;9.980;2023-04-01T07:36:08;24.00;1.00
20463;DHT22;10390;53.566;9.980;2023-04-01T07:41:24;24.10;1.00
20463;DHT22;10390;53.566;9.980;2023-04-01T07:49:08;24.00;1.00
20463;DHT22;10390;53.566;9.980;2023-04-01T07:57:38;24.00;1.00
20463;DHT22;10390;53.566;9.980;2023-04-01T08:00:20;24.00;1.00
20463;DHT22;10390;53.566;9.980;2023-04-01T08:05:37;23.90;1.00
20463;DHT22;10390;53.566;9.980;2023-04-01T08:11:14;23.80;1.00
20463;DHT22;10390;53.566;9.980;2023-04-01T08:14:09;23.80;1.00
20463;DHT22;10390;53.566;9.980;2023-04-01T08:22:09;23.70;1.00
20463;DHT22;10390;53.566;9.980;2023-04-01T08:24:44;23.70;1.00
20463;DHT22;10390;53.566;9.980;2023-04-01T08:27:44;23.70;1.00
20463;DHT22;10390;53.566;9.980;2023-04-01T08:30:26;23.60;1.00
20463;DHT22;10390;53.566;9.980;2023-04-01T08:32:58;23.70;1.00
20463;DHT22;10390;53.566;9.980;2023-04-01T08:35:37;23.70;1.00
20463;DHT22;10390;53.566;9.980;2023-04-01T08:46:56;23.70;1.00
20463;DHT22;10390;53.566;9.980;2023-04-01T08:52:36;23.70;1.00
20463;DHT22;10390;53.566;9.980;2023-04-01T08:55:17;23.80;1.00
20463;DHT22;10390;53.566;9.980;2023-04-01T09:01:03;23.80;1.00
20463;DHT22;10390;53.566;9.980;2023-04-01T09:09:18;23.80;1.00
20463;DHT22;10390;53.566;9.980;2023-04-01T09:15:01;23.90;1.00
20463;DHT22;10390;53.566;9.980;2023-04-01T09:26:08;23.90;1.00
20463;DHT22;10390;53.566;9.980;2023-04-01T09:28:42;23.80;1.00
20463;DHT22;10390;53.566;9.980;2023-04-01T09:39:38;23.80;1.00
20463;DHT22;10390;53.566;9.980;2023-04-01T09:42:41;23.80;1.00
20463;DHT22;10390;53.566;9.980;2023-04-01T09:48:05;23.80;1.00
20463;DHT22;10390;53.566;9.980;2023-04-01T09:53:55;23.80;1.00
20463;DHT22;10390;53.566;9.980;2023-04-01T09:56:59;23.80;1.00
20463;DHT22;10390;53.566;9.980;2023-04-01T10:10:57;23.70;1.00
20463;DHT22;10390;53.566;9.980;2023-04-01T10:13:46;23.60;1.00
20463;DHT22;10390;53.566;9.980;2023-04-01T10:22:21;23.60;1.00
20463;DHT22;10390;53.566;9.980;2023-04-01T10:48:12;23.60;1.00
20463;DHT22;10390;53.566;9.980;2023-04-01T10:50:49;23.60;1.00
20463;DHT22;10390;53.566;9.980;2023-04-01T10:56:36;23.60;1.00
20463;DHT22;10390;53.566;9.980;2023-04-01T11:07:53;23.60;1.00
20463;DHT22;10390;53.566;9.980;2023-04-01T11:21:50;23.70;1.00
20463;DHT22;10390;53.566;9.980;2023-04-01T11:30:28;23.70;1.00
20463;DHT22;10390;53.566;9.980;2023-04-01T11:33:23;23.70;1.00
20463;DHT22;10390;53.566;9.980;2023-04-01T11:44:22;23.70;1.00
20463;DHT22;10390;53.566;9.980;2023-04-01T11:58:18;23.70;1.00
20463;DHT22;10390;53.566;9.980;2023-04-01T12:06:33;23.60;1.00
20463;DHT22;10390;53.566;9.980;2023-04-01T12:17:02;23.50;1.00
20463;DHT22;10390;53.566;9.980;2023-04-01T12:19:51;23.50;1.00
20463;DHT22;10390;53.566;9.980;2023-04-01T12:33:39;23.40;1.00
20463;DHT22;10390;53.566;9.980;2023-04-01T12:37:18;23.40;1.00
20463;DHT22;10390;53.566;9.980;2023-04-01T12:39:47;23.40;1.00
20463;DHT22;10390;53.566;9.980;2023-04-01T12:45:23;23.40;1.00
20463;DHT22;10390;53.566;9.980;2023-04-01T12:56:38;23.40;1.00
20463;DHT22;10390;53.566;9.980;2023-04-01T13:02:00;23.40;1.00
20463;DHT22;10390;53.566;9.980;2023-04-01T13:10:13;23.50;1.00
20463;DHT22;10390;53.566;9.980;2023-04-01T13:15:29;23.50;1.00
20463;DHT22;10390;53.566;9.980;2023-04-01T13:18:24;23.50;1.00
20463;DHT22;10390;53.566;9.980;2023-04-01T13:32:02;23.60;1.00
20463;DHT22;10390;53.566;9.980;2023-04-01T13:34:38;23.60;1.00
20463;DHT22;10390;53.566;9.980;2023-04-01T13:37:15;23.70;1.00
20463;DHT22;10390;53.566;9.980;2023-04-01T13:40:32;23.70;1.00
20463;DHT22;10390;53.566;9.980;2023-04-01T13:43:29;23.70;1.00
20463;DHT22;10390;53.566;9.980;2023-04-01T14:00:17;23.60;1.00
20463;DHT22;10390;53.566;9.980;2023-04-01T14:03:14;23.60;1.00
20463;DHT22;10390;53.566;9.980;2023-04-01T14:05:51;23.60;1.00
20463;DHT22;10390;53.566;9.980;2023-04-01T14:17:05;23.40;1.00
20463;DHT22;10390;53.566;9.980;2023-04-01T14:28:06;23.30;1.00
20463;DHT22;10390;53.566;9.980;2023-04-01T14:33:31;23.40;1.00
20463;DHT22;10390;53.566;9.980;2023-04-01T14:36:06;23.40;1.00
20463;DHT22;10390;53.566;9.980;2023-04-01T14:47:04;23.40;1.00
20463;DHT22;10390;53.566;9.980;2023-04-01T14:50:02;23.40;1.00
20463;DHT22;10390;53.566;9.980;2023-04-01T14:52:32;23.40;1.00
20463;DHT22;10390;53.566;9.980;2023-04-01T14:55:15;23.40;1.00
20463;DHT22;10390;53.566;9.980;2023-04-01T14:57:58;23.40;1.00
20463;DHT22;10390;53.566;9.980;2023-04-01T15:00:24;23.50;1.00
20463;DHT22;10390;53.566;9.980;2023-04-01T15:03:01;23.50;1.00
20463;DHT22;10390;53.566;9.980;2023-04-01T15:05:55;23.50;1.00
20463;DHT22;10390;53.566;9.980;2023-04-01T15:08:33;23.50;1.00
20463;DHT22;10390;53.566;9.980;2023-04-01T15:23:58;23.60;1.00
20463;DHT22;10390;53.566;9.980;2023-04-01T15:29:47;23.60;1.00
20463;DHT22;10390;53.566;9.980;2023-04-01T15:34:53;23.60;1.00
20463;DHT22;10390;53.566;9.980;2023-04-01T15:37:48;23.60;1.00
20463;DHT22;10390;53.566;9.980;2023-04-01T15:40:27;23.60;1.00
20463;DHT22;10390;53.566;9.980;2023-04-01T15:51:28;23.60;1.00
20463;DHT22;10390;53.566;9.980;2023-04-01T15:57:25;23.50;1.00
20463;DHT22;10390;53.566;9.980;2023-04-01T16:03:16;23.40;1.00
20463;DHT22;10390;53.566;9.980;2023-04-01T16:11:45;23.20;1.00
20463;DHT22;10390;53.566;9.980;2023-04-01T16:14:44;23.20;1.00
20463;DHT22;10390;53.566;9.980;2023-04-01T16:17:43;23.20;1.00
20463;DHT22;10390;53.566;9.980;2023-04-01T16:20:35;23.20;1.00
20463;DHT22;10390;53.566;9.980;2023-04-01T16:26:06;23.20;1.00
20463;DHT22;10390;53.566;9.980;2023-04-01T16:28:50;23.20;1.00
20463;DHT22;10390;53.566;9.980;2023-04-01T16:36:53;23.20;1.00
20463;DHT22;10390;53.566;9.980;2023-04-01T16:44:52;23.30;1.00
20463;DHT22;10390;53.566;9.980;2023-04-01T16:47:22;23.20;1.00
20463;DHT22;10390;53.566;9.980;2023-04-01T16:50:07;23.30;1.00
20463;DHT22;10390;53.566;9.980;2023-04-01T16:53:08;23.30;1.00
20463;DHT22;10390;53.566;9.980;2023-04-01T16:55:53;23.30;1.00
20463;DHT22;10390;53.566;9.980;2023-04-01T17:04:47;23.40;1.00
20463;DHT22;10390;53.566;9.980;2023-04-01T17:16:44;23.50;1.00
20463;DHT22;10390;53.566;9.980;2023-04-01T17:18:59;23.50;1.00
20463;DHT22;10390;53.566;9.980;2023-04-01T17:21:57;23.50;1.00
20463;DHT22;10390;53.566;9.980;2023-04-01T17:35:32;23.50;1.00
20463;DHT22;10390;53.566;9.980;2023-04-01T17:38:12;23.50;1.00
20463;DHT22;10390;53.566;9.980;2023-04-01T17:43:41;23.50;1.00
20463;DHT22;10390;53.566;9.980;2023-04-01T17:51:48;23.40;1.00
20463;DHT22;10390;53.566;9.980;2023-04-01T17:54:31;23.40;1.00
20463;DHT22;10390;53.566;9.980;2023-04-01T18:00:23;23.20;1.00
20463;DHT22;10390;53.566;9.980;2023-04-01T18:11:28;23.00;1.00
20463;DHT22;10390;53.566;9.980;2023-04-01T18:25:41;23.10;1.00
20463;DHT22;10390;53.566;9.980;2023-04-01T18:28:21;23.10;1.00
20463;DHT22;10390;53.566;9.980;2023-04-01T18:31:24;23.10;1.00
20463;DHT22;10390;53.566;9.980;2023-04-01T18:36:59;23.10;1.00
20463;DHT22;10390;53.566;9.980;2023-04-01T18:39:52;23.20;1.00
20463;DHT22;10390;53.566;9.980;2023-04-01T18:42:50;23.20;1.00
20463;DHT22;10390;53.566;9.980;2023-04-01T18:45:40;23.20;1.00
20463;DHT22;10390;53.566;9.980;2023-04-01T18:48:42;23.20;1.00
20463;DHT22;10390;53.566;9.980;2023-04-01T18:51:17;23.30;1.00
20463;DHT22;10390;53.566;9.980;2023-04-01T18:56:34;23.30;1.00
20463;DHT22;10390;53.566;9.980;2023-04-01T19:10:26;23.50;1.00
20463;DHT22;10390;53.566;9.980;2023-04-01T19:15:52;23.50;1.00
20463;DHT22;10390;53.566;9.980;2023-04-01T19:32:24;23.50;1.00
20463;DHT22;10390;53.566;9.980;2023-04-01T19:35:02;23.40;1.00
20463;DHT22;10390;53.566;9.980;2023-04-01T19:48:05;23.40;1.00
20463;DHT22;10390;53.566;9.980;2023-04-01T19:50:52;23.40;1.00
20463;DHT22;10390;53.566;9.980;2023-04-01T19:56:22;23.30;1.00
20463;DHT22;10390;53.566;9.980;2023-04-01T19:59:02;23.20;1.00
20463;DHT22;10390;53.566;9.980;2023-04-01T20:02:01;23.20;1.00
20463;DHT22;10390;53.566;9.980;2023-04-01T20:04:34;23.10;1.00
20463;DHT22;10390;53.566;9.980;2023-04-01T20:07:07;23.00;1.00
20463;DHT22;10390;53.566;9.980;2023-04-01T20:12:23;22.90;1.00
20463;DHT22;10390;53.566;9.980;2023-04-01T20:14:58;22.90;1.00
20463;DHT22;10390;53.566;9.980;2023-04-01T20:17:24;22.90;1.00
20463;DHT22;10390;53.566;9.980;2023-04-01T20:19:57;22.80;1.00
20463;DHT22;10390;53.566;9.980;2023-04-01T20:24:58;22.90;1.00
20463;DHT22;10390;53.566;9.980;2023-04-01T20:27:27;22.90;1.00
20463;DHT22;10390;53.566;9.980;2023-04-01T20:36:05;22.90;1.00
20463;DHT22;10390;53.566;9.980;2023-04-01T20:44:52;23.00;1.00
20463;DHT22;10390;53.566;9.980;2023-04-01T20:47:41;23.00;1.00
20463;DHT22;10390;53.566;9.980;2023-04-01T20:50:19;23.00;1.00
20463;DHT22;10390;53.566;9.980;2023-04-01T20:58:36;23.10;1.00
20463;DHT22;10390;53.566;9.980;2023-04-01T21:01:32;23.10;1.00
20463;DHT22;10390;53.566;9.980;2023-04-01T21:06:43;23.20;1.00
20463;DHT22;10390;53.566;9.980;2023-04-01T21:22:28;23.30;1.00
20463;DHT22;10390;53.566;9.980;2023-04-01T21:25:49;23.30;1.00
20463;DHT22;10390;53.566;9.980;2023-04-01T21:39:01;23.20;1.00
20463;DHT22;10390;53.566;9.980;2023-04-01T21:53:08;23.00;1.00
20463;DHT22;10390;53.566;9.980;2023-04-01T22:01:31;22.80;1.00
20463;DHT22;10390;53.566;9.980;2023-04-01T22:07:27;22.80;1.00
20463;DHT22;10390;53.566;9.980;2023-04-01T22:09:39;22.80;1.00
20463;DHT22;10390;53.566;9.980;2023-04-01T22:12:17;22.90;1.00
20463;DHT22;10390;53.566;9.980;2023-04-01T22:15:17;22.80;1.00
20463;DHT22;10390;53.566;9.980;2023-04-01T22:20:36;22.90;1.00
20463;DHT22;10390;53.566;9.980;2023-04-01T22:23:31;22.90;1.00
20463;DHT22;10390;53.566;9.980;2023-04-01T22:28:57;22.90;1.00
20463;DHT22;10390;53.566;9.980;2023-04-01T22:31:55;22.90;1.00
20463;DHT22;10390;53.566;9.980;2023-04-01T22:37:19;22.90;1.00
20463;DHT22;10390;53.566;9.980;2023-04-01T22:40:14;22.90;1.00
20463;DHT22;10390;53.566;9.980;2023-04-01T22:42:47;22.90;1.00
20463;DHT22;10390;53.566;9.980;2023-04-01T22:50:47;23.00;1.00
20463;DHT22;10390;53.566;9.980;2023-04-01T22:53:31;23.10;1.00
20463;DHT22;10390;53.566;9.980;2023-04-01T22:56:01;23.10;1.00
20463;DHT22;10390;53.566;9.980;2023-04-01T22:58:36;23.10;1.00
20463;DHT22;10390;53.566;9.980;2023-04-01T23:01:12;23.10;1.00
20463;DHT22;10390;53.566;9.980;2023-04-01T23:03:41;23.20;1.00
20463;DHT22;10390;53.566;9.980;2023-04-01T23:06:17;23.20;1.00
20463;DHT22;10390;53.566;9.980;2023-04-01T23:11:49;23.20;1.00
20463;DHT22;10390;53.566;9.980;2023-04-01T23:14:28;23.20;1.00
20463;DHT22;10390;53.566;9.980;2023-04-01T23:20:02;23.20;1.00
20463;DHT22;10390;53.566;9.980;2023-04-01T23:36:02;22.80;1.00
20463;DHT22;10390;53.566;9.980;2023-04-01T23:38:40;22.80;1.00
20463;DHT22;10390;53.566;9.980;2023-04-01T23:41:18;22.80;1.00
20463;DHT22;10390;53.566;9.980;2023-04-01T23:43:52;22.80;1.00
20463;DHT22;10390;53.566;9.980;2023-04-01T23:46:18;22.80;1.00
20463;DHT22;10390;53.566;9.980;2023-04-01T23:48:45;22.80;1.00
20463;DHT22;10390;53.566;9.980;2023-04-01T23:51:21;22.80;1.00
20463;DHT22;10390;53.566;9.980;2023-04-01T23:53:55;22.80;1.00
20463;DHT22;10390;53.566;9.980;2023-04-01T23:56:21;22.80;1.00
20463;DHT22;10390;53.566;9.980;2023-04-01T23:58:52;22.80;1.00
